Peggy, Texas
Current Conditions -  °F | °C
As of 1:20 PM on Saturday 25 Oct 2014 (Local Time) from KPEZ Reporting Station
Clear Clear  
Wind Chill: 85°   Ceiling: Unl
Heat Index: 85°   Visibility: 10mi
Dew Point: 55°   Wind: 0mph
Humidity: 36%   Direction: NA
Pressure: 30.16"   Gusts: NA
Location:  28.74°N, 98.18°W
Report Text: KPEZ 251820Z AUTO 00000KT 10SM CLR 29/13 A3016 RMK AO2 T02920128
Loading
Personal Weather Stations






























Interactive Weather Map
Tropical Storm Tracking
New forecast layout! Learn more

10-Day Weather Forecast

Advertisements
Track Severe Weather on mobile